Time;durP1;ratioP1;P1;durP2;ratioP2;P2;SDS_P1;SDS_P2;PMS_P1;PMS_P2;Temp;Humidity;BMP_temperature;BMP_pressure;BME280_temperature;BME280_humidity;BME280_pressure;Samples;Min_cycle;Max_cycle;Signal;HPM_P1;HPM_P2
2021/12/12 00:01:43;;;;;;;33.60;17.02;;;;;;;0.16;75.95;99060.34;4334706;32;33859;-90
2021/12/12 00:04:15;;;;;;;34.03;17.50;;;;;;;0.46;74.91;99061.03;4346515;32;33644;-92
2021/12/12 00:06:52;;;;;;;34.28;18.00;;;;;;;0.57;74.62;99065.00;4359762;32;34565;-91
2021/12/12 00:09:35;;;;;;;31.45;18.10;;;;;;;0.84;73.86;99068.03;4346395;32;34075;-90
2021/12/12 00:12:08;;;;;;;34.88;19.75;;;;;;;0.58;74.37;99081.19;4359722;32;33885;-91
2021/12/12 00:14:36;;;;;;;30.77;16.90;;;;;;;0.60;74.10;99077.00;4359817;32;33572;-90
2021/12/12 00:17:06;;;;;;;30.33;17.67;;;;;;;0.73;73.57;99076.84;4359318;32;33552;-91
2021/12/12 00:19:35;;;;;;;33.35;17.50;;;;;;;0.77;73.81;99072.78;4359605;32;34119;-91
2021/12/12 00:22:06;;;;;;;30.73;17.80;;;;;;;0.52;74.32;99083.41;4346502;32;33680;-91
2021/12/12 00:24:34;;;;;;;33.38;17.83;;;;;;;0.51;74.04;99079.97;4359605;32;33670;-91
2021/12/12 00:27:02;;;;;;;29.17;16.87;;;;;;;0.60;73.93;99087.22;4359337;32;34692;-91
2021/12/12 00:29:30;;;;;;;33.13;18.48;;;;;;;0.58;74.21;99078.63;4359599;32;34274;-93
2021/12/12 00:32:01;;;;;;;31.00;18.70;;;;;;;0.42;74.78;99090.59;4348171;32;34555;-93
2021/12/12 00:34:34;;;;;;;32.58;18.83;;;;;;;0.62;74.44;99080.53;4348209;32;33426;-83
2021/12/12 00:37:04;;;;;;;36.70;19.00;;;;;;;0.38;74.77;99075.94;4361123;32;34631;-90
2021/12/12 00:39:34;;;;;;;29.98;16.58;;;;;;;0.21;75.36;99081.84;4348032;32;34245;-90
2021/12/12 00:42:16;;;;;;;36.92;18.80;;;;;;;0.24;75.52;99075.22;4348043;32;34591;-89
2021/12/12 00:44:47;;;;;;;35.60;19.48;;;;;;;0.03;76.05;99074.09;4337564;32;32223;-92
2021/12/12 00:47:15;;;;;;;38.58;18.85;;;;;;;0.55;74.23;99071.69;4348053;32;32804;-82
2021/12/12 00:50:06;;;;;;;34.83;18.73;;;;;;;0.17;75.23;99074.81;4347484;32;32401;-85
2021/12/12 00:52:33;;;;;;;33.78;18.80;;;;;;;0.36;74.44;99081.75;4348004;32;34322;-81
2021/12/12 00:55:02;;;;;;;35.65;19.60;;;;;;;0.18;75.28;99071.47;4361489;32;33578;-91
2021/12/12 00:57:32;;;;;;;36.47;19.17;;;;;;;0.34;74.91;99073.13;4347854;32;33805;-90
2021/12/12 00:59:59;;;;;;;32.42;17.50;;;;;;;0.00;75.83;99073.97;4347576;32;34609;-89
2021/12/12 01:02:30;;;;;;;34.65;18.27;;;;;;;0.31;74.73;99071.31;4347941;32;33326;-91
2021/12/12 01:05:00;;;;;;;32.40;16.77;;;;;;;0.24;74.92;99090.53;4361431;32;33459;-92
2021/12/12 01:07:32;;;;;;;32.83;17.23;;;;;;;0.48;74.00;99087.47;4361342;32;33999;-84
2021/12/12 01:10:08;;;;;;;33.92;19.52;;;;;;;0.09;74.72;99105.00;4361010;32;34079;-90
2021/12/12 01:12:37;;;;;;;36.60;21.05;;;;;;;0.24;74.87;99093.06;4362053;32;33729;-92
2021/12/12 01:15:20;;;;;;;29.37;17.25;;;;;;;0.53;73.36;99100.44;4347969;32;33624;-90
2021/12/12 01:17:50;;;;;;;35.08;19.60;;;;;;;0.34;73.82;99088.44;4361322;32;33673;-93
2021/12/12 01:20:26;;;;;;;36.20;19.80;;;;;;;0.40;74.13;99094.72;4360328;32;33913;-89
2021/12/12 01:22:58;;;;;;;38.70;20.67;;;;;;;0.14;74.77;99087.41;4361166;32;35091;-93
2021/12/12 01:25:30;;;;;;;34.88;19.98;;;;;;;0.19;74.66;99088.50;4361102;32;33364;-92
2021/12/12 01:27:57;;;;;;;36.45;19.12;;;;;;;0.24;74.14;99098.16;4361155;32;33553;-93
2021/12/12 01:30:26;;;;;;;35.75;19.73;;;;;;;0.13;74.76;99089.06;4347467;32;34980;-90
2021/12/12 01:32:55;;;;;;;36.20;20.15;;;;;;;0.23;74.07;99096.41;4347810;32;34633;-91
2021/12/12 01:35:23;;;;;;;38.15;20.08;;;;;;;0.26;74.28;99093.13;4361394;32;33794;-90
2021/12/12 01:40:51;;;;;;;40.63;20.50;;;;;;;0.12;74.27;99077.13;4349624;32;34031;-93
2021/12/12 01:43:26;;;;;;;39.70;20.90;;;;;;;0.35;73.69;99087.66;4347854;32;33630;-92
2021/12/12 01:46:07;;;;;;;37.75;20.98;;;;;;;0.05;74.96;99099.69;4347980;32;33385;-93
2021/12/12 01:48:40;;;;;;;36.10;19.00;;;;;;;-0.04;74.79;99083.09;4346416;33;33119;-90
2021/12/12 01:51:09;;;;;;;38.58;20.25;;;;;;;0.16;74.45;99098.56;4320914;33;33818;-92
2021/12/12 01:53:41;;;;;;;42.25;21.42;;;;;;;0.29;73.88;99095.84;4345137;33;33792;-84
2021/12/12 01:56:22;;;;;;;37.22;20.83;;;;;;;0.06;74.45;99104.84;4346775;32;33882;-88
2021/12/12 01:58:58;;;;;;;41.83;21.10;;;;;;;0.19;73.56;99116.56;4346149;33;33924;-90
2021/12/12 02:01:32;;;;;;;40.83;21.73;;;;;;;0.17;73.91;99100.31;4320900;33;34241;-91
2021/12/12 02:04:05;;;;;;;38.60;20.30;;;;;;;0.13;74.25;99088.22;4336193;32;32376;-88
2021/12/12 02:06:32;;;;;;;35.92;19.42;;;;;;;0.02;74.88;99108.03;4334947;32;32054;-91
2021/12/12 02:09:01;;;;;;;39.17;20.80;;;;;;;0.04;74.67;99111.53;4347323;32;33558;-92
2021/12/12 02:11:31;;;;;;;38.63;21.17;;;;;;;0.25;73.63;99101.59;4360669;32;33474;-92
2021/12/12 02:14:09;;;;;;;41.28;21.12;;;;;;;0.15;73.82;99101.87;4334658;32;33338;-92
2021/12/12 02:16:40;;;;;;;38.17;22.37;;;;;;;0.10;74.28;99098.22;4360721;32;34316;-89
2021/12/12 02:19:09;;;;;;;34.88;19.40;;;;;;;0.24;74.23;99102.37;4347458;32;34309;-92
2021/12/12 02:22:02;;;;;;;38.50;21.12;;;;;;;0.20;73.44;99096.25;4347756;32;33858;-90
2021/12/12 02:38:04;;;;;;;38.88;19.83;;;;;;;0.26;73.76;99094.81;4347893;32;33124;-90
2021/12/12 02:40:40;;;;;;;29.25;17.25;;;;;;;0.30;72.93;99082.28;4347448;32;33278;-91
2021/12/12 02:43:11;;;;;;;35.75;19.58;;;;;;;0.12;73.68;99079.69;4334689;32;34276;-91
2021/12/12 02:45:38;;;;;;;40.80;20.85;;;;;;;0.42;72.74;99092.28;4347376;32;34013;-91
2021/12/12 02:48:09;;;;;;;38.90;19.85;;;;;;;0.56;72.18;99095.50;4347080;32;34677;-90
2021/12/12 02:50:40;;;;;;;36.67;21.83;;;;;;;0.53;72.15;99092.81;4347553;32;33852;-92
2021/12/12 02:53:12;;;;;;;41.67;21.48;;;;;;;0.24;73.31;99099.84;4346455;32;33671;-91
2021/12/12 02:55:47;;;;;;;37.15;21.37;;;;;;;0.15;73.56;99112.09;4347150;32;34102;-92
2021/12/12 02:58:16;;;;;;;38.97;19.55;;;;;;;0.47;72.48;99112.09;4360930;32;33166;-92
2021/12/12 03:00:51;;;;;;;33.15;19.83;;;;;;;0.20;72.86;99106.44;4360135;32;34018;-91
2021/12/12 03:03:18;;;;;;;36.35;19.58;;;;;;;0.35;72.98;99121.69;4358084;32;34994;-90
2021/12/12 03:05:48;;;;;;;39.40;19.70;;;;;;;0.12;73.56;99119.59;4347285;32;34636;-85
2021/12/12 03:08:40;;;;;;;39.75;21.27;;;;;;;0.24;73.54;99113.47;4348924;32;33880;-92
2021/12/12 03:11:09;;;;;;;35.20;19.95;;;;;;;0.24;73.49;99126.22;4334792;32;33883;-90
2021/12/12 03:13:38;;;;;;;35.92;19.55;;;;;;;0.16;73.52;99134.25;4346663;32;33754;-91
2021/12/12 03:16:07;;;;;;;35.40;19.87;;;;;;;0.07;73.59;99123.56;4347057;32;34720;-85
2021/12/12 03:18:43;;;;;;;37.08;18.60;;;;;;;0.17;73.44;99125.81;4360118;32;33121;-89
2021/12/12 03:21:18;;;;;;;37.28;19.80;;;;;;;0.69;71.36;99123.41;4349590;32;34899;-91
2021/12/12 03:23:52;;;;;;;37.10;19.87;;;;;;;0.78;71.05;99123.87;4346811;32;33327;-93
2021/12/12 03:26:20;;;;;;;34.60;18.77;;;;;;;0.45;71.77;99121.34;4334717;32;33889;-92
2021/12/12 03:28:51;;;;;;;35.28;18.48;;;;;;;0.25;72.50;99114.34;4359842;32;34031;-93
2021/12/12 03:31:31;;;;;;;34.17;18.20;;;;;;;0.09;72.90;99129.63;4337090;32;34559;-92
2021/12/12 03:34:00;;;;;;;37.88;18.33;;;;;;;0.29;72.57;99123.91;4346382;32;34548;-92
2021/12/12 03:36:27;;;;;;;34.95;19.50;;;;;;;0.23;72.52;99146.53;4336629;33;34180;-90
2021/12/12 03:38:58;;;;;;;34.35;18.83;;;;;;;0.31;71.83;99132.53;4359254;32;33856;-93
2021/12/12 03:41:31;;;;;;;36.58;20.58;;;;;;;0.36;71.69;99142.94;4346700;32;33086;-92
2021/12/12 03:44:00;;;;;;;34.63;19.70;;;;;;;-0.06;72.87;99150.06;4346342;32;34114;-92
2021/12/12 03:46:28;;;;;;;31.98;18.58;;;;;;;0.11;72.50;99148.41;4333906;32;33969;-90
2021/12/12 03:48:56;;;;;;;36.60;20.55;;;;;;;0.14;72.03;99151.12;4346381;32;34316;-88
2021/12/12 03:51:26;;;;;;;36.42;20.52;;;;;;;-0.17;73.15;99163.91;4331406;33;32832;-92
2021/12/12 03:53:55;;;;;;;38.13;18.65;;;;;;;0.15;72.48;99147.78;4344101;33;34010;-92
2021/12/12 03:56:23;;;;;;;36.45;19.12;;;;;;;0.22;72.07;99149.84;4345685;32;31581;-92
2021/12/12 03:58:51;;;;;;;38.47;19.27;;;;;;;0.53;70.56;99152.38;4346114;32;33394;-91
2021/12/12 04:01:23;;;;;;;38.60;21.73;;;;;;;0.33;70.99;99153.84;4345409;32;33533;-90
2021/12/12 04:03:54;;;;;;;42.00;20.60;;;;;;;0.27;71.06;99162.87;4359854;32;33832;-91
2021/12/12 04:06:24;;;;;;;38.17;20.27;;;;;;;-0.07;72.05;99168.72;4347267;32;33447;-93
2021/12/12 04:08:53;;;;;;;38.40;21.17;;;;;;;0.09;71.36;99172.97;4348074;32;33231;-90
2021/12/12 04:11:56;;;;;;;43.33;22.00;;;;;;;0.11;71.31;99184.09;4361694;32;34031;-93
2021/12/12 04:14:25;;;;;;;41.15;20.55;;;;;;;0.35;70.39;99187.97;4330464;32;34923;-92
2021/12/12 04:16:56;;;;;;;36.33;21.20;;;;;;;0.17;70.83;99182.75;4335709;32;34468;-93
2021/12/12 04:19:25;;;;;;;40.25;23.30;;;;;;;0.46;70.22;99191.97;4347958;32;33619;-93
2021/12/12 04:21:54;;;;;;;42.35;21.33;;;;;;;0.30;70.25;99186.84;4323281;32;33799;-92
2021/12/12 04:24:27;;;;;;;39.40;22.67;;;;;;;0.32;70.24;99187.81;4335309;32;32786;-93
2021/12/12 04:26:56;;;;;;;41.55;23.48;;;;;;;0.11;71.00;99202.81;4347977;32;34079;-92
2021/12/12 04:29:32;;;;;;;39.33;21.33;;;;;;;0.17;70.69;99207.38;4361270;32;33412;-89
2021/12/12 04:32:06;;;;;;;36.50;21.17;;;;;;;0.50;69.60;99210.00;4348320;32;33964;-92
2021/12/12 04:34:37;;;;;;;42.83;22.80;;;;;;;0.20;70.50;99212.66;4347267;32;34022;-90
2021/12/12 04:37:05;;;;;;;41.05;22.50;;;;;;;0.25;70.26;99203.56;4335687;32;33175;-89
2021/12/12 04:39:37;;;;;;;45.67;24.63;;;;;;;0.39;69.63;99205.19;4353419;32;33513;-90
2021/12/12 04:42:07;;;;;;;46.42;23.27;;;;;;;0.48;69.40;99200.56;4361471;32;33990;-90
2021/12/12 04:44:37;;;;;;;43.30;23.35;;;;;;;0.12;70.45;99204.59;4360916;32;34826;-93
2021/12/12 04:50:16;;;;;;;45.05;24.30;;;;;;;0.46;69.32;99206.41;4341712;32;35140;-91
2021/12/12 04:52:48;;;;;;;47.78;24.65;;;;;;;0.16;70.37;99214.16;4347426;32;34491;-91
2021/12/12 04:55:21;;;;;;;42.38;23.30;;;;;;;0.31;69.89;99211.56;4361704;32;33530;-91
2021/12/12 04:58:10;;;;;;;46.90;25.75;;;;;;;0.46;69.41;99206.41;4347281;32;33141;-93
2021/12/12 05:00:42;;;;;;;45.17;23.65;;;;;;;0.17;69.94;99208.25;4360447;32;33007;-91
2021/12/12 05:03:20;;;;;;;51.53;24.50;;;;;;;0.02;70.31;99214.19;4339448;32;32469;-90
2021/12/12 05:05:48;;;;;;;49.58;25.88;;;;;;;-0.18;71.26;99208.87;4361414;32;34217;-90
2021/12/12 05:08:23;;;;;;;48.28;24.67;;;;;;;0.02;70.38;99209.09;4361025;32;33957;-91
2021/12/12 05:10:58;;;;;;;48.35;25.02;;;;;;;-0.09;70.91;99217.03;4347076;32;34395;-83
2021/12/12 05:13:49;;;;;;;45.50;23.90;;;;;;;-0.08;70.64;99207.69;4347616;32;33838;-91
2021/12/12 05:16:27;;;;;;;47.38;25.70;;;;;;;0.19;70.02;99215.97;4361197;32;33876;-92
2021/12/12 05:19:16;;;;;;;60.95;27.60;;;;;;;-0.20;70.89;99205.34;4347181;32;34023;-91
2021/12/12 05:21:48;;;;;;;45.92;23.80;;;;;;;-0.10;70.80;99222.91;4335550;32;33142;-91
2021/12/12 05:24:17;;;;;;;46.78;23.10;;;;;;;-0.09;70.84;99223.78;4347833;32;34253;-94
2021/12/12 05:26:53;;;;;;;46.70;25.17;;;;;;;-0.05;70.31;99221.50;4348521;32;34247;-93
2021/12/12 05:29:23;;;;;;;45.50;25.37;;;;;;;0.03;70.05;99215.94;4347462;32;36104;-93
2021/12/12 05:31:53;;;;;;;50.12;24.45;;;;;;;0.03;70.49;99227.00;4347365;32;33594;-92
2021/12/12 05:34:24;;;;;;;44.60;23.30;;;;;;;0.06;70.18;99222.09;4347906;32;33650;-91
2021/12/12 05:36:53;;;;;;;48.33;27.13;;;;;;;0.16;70.06;99237.09;4335216;32;33223;-92
2021/12/12 05:39:21;;;;;;;42.83;23.65;;;;;;;-0.02;70.25;99241.19;4347362;32;33948;-92
2021/12/12 05:41:48;;;;;;;41.70;23.42;;;;;;;0.06;70.16;99232.28;4347060;32;34550;-92
2021/12/12 05:44:16;;;;;;;42.15;23.05;;;;;;;0.31;69.08;99242.16;4347827;32;33453;-92
2021/12/12 05:46:44;;;;;;;42.03;22.00;;;;;;;0.02;69.98;99252.44;4335051;32;33239;-92
2021/12/12 05:49:12;;;;;;;46.08;23.80;;;;;;;0.14;69.98;99248.00;4334831;32;33940;-92
2021/12/12 05:51:39;;;;;;;44.28;22.87;;;;;;;0.15;69.91;99245.56;4360432;32;34292;-91
2021/12/12 05:54:07;;;;;;;44.13;22.48;;;;;;;-0.07;70.68;99242.62;4347644;32;33903;-92
2021/12/12 05:56:37;;;;;;;40.58;22.02;;;;;;;-0.23;70.87;99240.84;4361204;32;33745;-91
2021/12/12 05:59:05;;;;;;;37.65;21.60;;;;;;;0.16;69.79;99244.75;4347387;32;32940;-92
2021/12/12 06:01:33;;;;;;;38.25;19.92;;;;;;;0.17;69.88;99248.19;4346617;32;33934;-93
2021/12/12 06:04:01;;;;;;;41.00;20.98;;;;;;;0.09;69.61;99245.22;4347039;32;34075;-92
2021/12/12 06:06:32;;;;;;;38.85;18.42;;;;;;;0.05;69.69;99252.59;4346954;32;34857;-91
2021/12/12 06:09:02;;;;;;;38.17;18.92;;;;;;;0.37;68.29;99252.69;4360293;32;33510;-92
2021/12/12 06:11:33;;;;;;;35.55;21.17;;;;;;;0.43;68.23;99249.59;4360545;32;33172;-92
2021/12/12 06:14:01;;;;;;;34.67;19.55;;;;;;;0.40;68.35;99250.28;4346739;32;33585;-90
2021/12/12 06:16:30;;;;;;;36.72;19.10;;;;;;;0.14;69.16;99248.00;4357154;32;33638;-89
2021/12/12 06:19:19;;;;;;;36.85;19.77;;;;;;;0.07;69.37;99246.78;4360704;32;34611;-91
2021/12/12 06:21:54;;;;;;;36.22;18.48;;;;;;;0.48;67.95;99261.78;4347218;32;33639;-92
2021/12/12 06:24:24;;;;;;;31.85;18.15;;;;;;;0.40;68.57;99257.06;4347160;32;34325;-91
2021/12/12 06:26:52;;;;;;;37.83;18.60;;;;;;;0.18;68.48;99257.56;4347515;32;34816;-93
2021/12/12 06:29:20;;;;;;;32.83;18.10;;;;;;;0.09;68.84;99260.50;4359399;32;33417;-92
2021/12/12 06:31:50;;;;;;;29.02;17.80;;;;;;;0.12;69.29;99262.34;4347360;32;33110;-92
2021/12/12 06:34:18;;;;;;;30.08;17.62;;;;;;;-0.08;69.45;99263.75;4346805;32;34843;-93
2021/12/12 06:36:48;;;;;;;33.28;18.08;;;;;;;0.07;68.98;99268.84;4347699;32;33592;-92
2021/12/12 06:39:17;;;;;;;24.80;15.35;;;;;;;-0.25;70.02;99273.91;4346966;32;34019;-91
2021/12/12 06:41:46;;;;;;;31.92;17.33;;;;;;;0.10;68.63;99274.12;4346653;32;33699;-89
2021/12/12 06:44:14;;;;;;;28.67;16.12;;;;;;;0.11;68.78;99273.31;4346912;32;33995;-89
2021/12/12 06:46:42;;;;;;;30.95;16.23;;;;;;;0.03;68.67;99262.69;4346912;32;34138;-92
2021/12/12 06:49:11;;;;;;;32.33;17.23;;;;;;;0.07;69.03;99266.28;4346517;32;34013;-90
2021/12/12 06:51:44;;;;;;;32.60;17.33;;;;;;;0.23;68.09;99279.13;4346302;32;32295;-92
2021/12/12 06:54:19;;;;;;;28.08;15.10;;;;;;;0.26;68.12;99274.16;4347202;32;33467;-92
2021/12/12 06:56:49;;;;;;;30.33;15.52;;;;;;;0.31;68.05;99265.12;4360138;32;33880;-91
2021/12/12 06:59:17;;;;;;;28.85;15.85;;;;;;;0.11;68.46;99284.37;4346823;32;33978;-93
2021/12/12 07:01:45;;;;;;;26.30;14.60;;;;;;;0.15;68.36;99280.34;4346690;32;33032;-92
2021/12/12 07:04:15;;;;;;;27.75;14.85;;;;;;;0.15;68.44;99277.78;4349021;32;33700;-92
2021/12/12 07:06:43;;;;;;;25.12;15.13;;;;;;;0.25;68.26;99272.41;4345260;32;35124;-93
2021/12/12 07:09:11;;;;;;;24.58;13.65;;;;;;;0.22;68.42;99278.22;4346450;32;34671;-91
2021/12/12 07:11:40;;;;;;;25.15;14.52;;;;;;;0.25;68.00;99274.97;4347164;32;33600;-91
2021/12/12 07:14:10;;;;;;;24.80;14.20;;;;;;;0.35;67.92;99279.78;4346645;32;33982;-90
2021/12/12 07:16:39;;;;;;;26.37;14.38;;;;;;;0.34;68.26;99282.22;4356682;32;33923;-92
2021/12/12 07:19:07;;;;;;;28.52;16.58;;;;;;;0.32;67.98;99278.75;4346834;32;34817;-93
2021/12/12 07:21:36;;;;;;;29.08;15.27;;;;;;;0.81;66.68;99277.16;4334941;32;33543;-89
2021/12/12 07:24:05;;;;;;;23.67;13.98;;;;;;;0.87;66.07;99272.38;4359776;32;33801;-91
2021/12/12 07:26:32;;;;;;;24.85;13.65;;;;;;;0.81;66.41;99272.03;4359975;32;33750;-91
2021/12/12 07:29:01;;;;;;;27.50;15.63;;;;;;;0.75;65.85;99263.19;4360271;32;33300;-91
2021/12/12 07:31:31;;;;;;;26.20;15.18;;;;;;;0.81;66.22;99277.16;4346301;32;34383;-91
2021/12/12 07:34:02;;;;;;;31.67;15.93;;;;;;;0.68;66.73;99269.63;4334584;32;33991;-91
2021/12/12 07:36:33;;;;;;;22.25;13.88;;;;;;;0.50;66.87;99281.41;4359677;32;34034;-92
2021/12/12 07:39:05;;;;;;;22.55;13.43;;;;;;;0.73;66.53;99268.22;4360525;32;33538;-91
2021/12/12 07:41:34;;;;;;;23.58;13.68;;;;;;;0.70;66.34;99266.38;4334341;32;33581;-90
2021/12/12 07:44:05;;;;;;;23.23;13.38;;;;;;;0.30;67.29;99273.53;4347285;32;34758;-92
2021/12/12 07:46:33;;;;;;;21.65;13.23;;;;;;;0.26;67.77;99265.62;4346527;32;34763;-92
2021/12/12 07:49:01;;;;;;;20.48;12.35;;;;;;;0.35;67.56;99279.78;4359846;32;34132;-93
2021/12/12 07:51:29;;;;;;;20.25;12.40;;;;;;;0.44;67.05;99275.16;4334129;32;33023;-91
2021/12/12 07:54:02;;;;;;;21.48;12.25;;;;;;;0.69;66.41;99277.37;4335919;33;32475;-93
2021/12/12 07:56:31;;;;;;;24.92;13.68;;;;;;;0.54;67.10;99281.66;4321708;32;32877;-93
2021/12/12 07:59:01;;;;;;;25.85;17.45;;;;;;;0.50;66.93;99292.50;4321755;32;33514;-90
2021/12/12 08:01:28;;;;;;;29.40;18.95;;;;;;;0.28;67.52;99282.78;4358906;32;33262;-92
2021/12/12 08:03:59;;;;;;;24.45;14.87;;;;;;;0.31;68.09;99284.63;4346188;32;33810;-92
2021/12/12 08:06:26;;;;;;;25.12;15.50;;;;;;;0.48;67.10;99284.75;4334858;32;33364;-91
2021/12/12 08:08:55;;;;;;;24.58;14.68;;;;;;;0.65;66.76;99275.47;4345738;32;33868;-93
2021/12/12 08:11:28;;;;;;;22.92;13.52;;;;;;;0.83;66.02;99285.75;4331783;33;33625;-92
2021/12/12 08:13:57;;;;;;;24.40;13.50;;;;;;;0.64;66.73;99295.78;4342549;32;33757;-91
2021/12/12 08:16:25;;;;;;;25.23;14.05;;;;;;;0.88;65.75;99296.22;4346171;32;34675;-91
2021/12/12 08:18:55;;;;;;;21.30;12.88;;;;;;;0.89;66.08;99295.41;4342667;32;33451;-94
2021/12/12 08:21:23;;;;;;;19.98;12.07;;;;;;;0.70;66.12;99301.22;4342064;32;34390;-92
2021/12/12 08:23:52;;;;;;;24.30;14.93;;;;;;;0.93;65.40;99299.87;4334142;32;33610;-91
2021/12/12 08:26:21;;;;;;;25.25;13.20;;;;;;;0.87;65.85;99297.91;4337124;32;33655;-93
2021/12/12 08:28:49;;;;;;;24.27;13.02;;;;;;;0.96;65.44;99302.59;4334124;32;33775;-93
2021/12/12 08:31:17;;;;;;;20.75;12.30;;;;;;;0.91;65.69;99297.25;4321497;32;32960;-92
2021/12/12 08:33:45;;;;;;;21.70;13.15;;;;;;;0.87;65.88;99303.00;4322096;32;33786;-95
2021/12/12 08:36:15;;;;;;;25.67;15.10;;;;;;;0.73;66.50;99301.38;4346922;32;34422;-91
2021/12/12 08:38:44;;;;;;;24.27;14.10;;;;;;;0.57;66.98;99308.97;4346224;32;33740;-92
2021/12/12 08:41:14;;;;;;;26.20;15.55;;;;;;;0.88;65.92;99302.19;4346629;32;33228;-92
2021/12/12 08:43:43;;;;;;;24.60;14.68;;;;;;;1.00;65.68;99309.63;4322069;32;33989;-92
2021/12/12 08:46:13;;;;;;;21.77;11.95;;;;;;;0.95;65.99;99295.75;4321467;32;33387;-90
2021/12/12 08:48:46;;;;;;;21.52;12.45;;;;;;;1.12;65.05;99299.16;4319489;32;34068;-92
2021/12/12 08:51:22;;;;;;;19.77;12.45;;;;;;;0.84;66.36;99297.72;4335351;32;31860;-94
2021/12/12 08:53:51;;;;;;;20.40;12.82;;;;;;;1.35;64.53;99293.56;4335501;32;33473;-94
2021/12/12 08:56:30;;;;;;;22.90;12.85;;;;;;;1.03;65.56;99296.16;4347682;32;34152;-95
2021/12/12 08:58:59;;;;;;;21.08;11.88;;;;;;;1.01;65.49;99300.28;4361930;32;33514;-92
2021/12/12 09:01:28;;;;;;;18.75;11.57;;;;;;;1.39;64.68;99299.72;4348947;32;33405;-93
2021/12/12 09:03:59;;;;;;;22.25;13.77;;;;;;;1.20;64.98;99287.69;4346547;32;33508;-91
2021/12/12 09:06:59;;;;;;;21.30;12.50;;;;;;;1.24;65.07;99283.59;4350199;32;34299;-96
2021/12/12 09:09:30;;;;;;;20.50;11.55;;;;;;;1.65;63.70;99278.91;4336062;32;33839;-93
2021/12/12 09:12:03;;;;;;;23.00;12.02;;;;;;;1.26;64.98;99293.09;4347465;32;34100;-91
2021/12/12 09:14:41;;;;;;;20.52;12.07;;;;;;;1.33;64.40;99290.06;4347637;32;33676;-91
2021/12/12 09:17:18;;;;;;;18.73;10.88;;;;;;;1.36;64.68;99289.34;4304042;32;34315;-92
2021/12/12 09:19:51;;;;;;;17.92;10.90;;;;;;;1.95;63.34;99287.19;4321918;32;32998;-93
2021/12/12 09:22:33;;;;;;;17.73;10.50;;;;;;;1.93;62.28;99285.34;4321659;32;34474;-93
2021/12/12 09:25:24;;;;;;;16.02;10.75;;;;;;;2.08;61.77;99280.09;4334603;32;33892;-92
2021/12/12 09:27:55;;;;;;;17.35;10.10;;;;;;;1.81;62.42;99295.88;4329789;32;34717;-93
2021/12/12 09:30:25;;;;;;;17.73;10.20;;;;;;;1.79;62.88;99277.03;4334761;32;32718;-93
2021/12/12 09:33:01;;;;;;;16.65;10.02;;;;;;;1.84;63.01;99270.47;4335289;32;33005;-87
2021/12/12 09:35:33;;;;;;;15.82;9.48;;;;;;;1.85;62.93;99277.31;4347465;32;34479;-91
2021/12/12 09:38:25;;;;;;;16.15;8.95;;;;;;;1.64;63.53;99276.28;4330223;33;33846;-91
2021/12/12 09:41:20;;;;;;;16.00;9.05;;;;;;;1.66;63.59;99274.66;4357934;32;33180;-91
2021/12/12 09:44:03;;;;;;;17.00;8.83;;;;;;;2.01;62.40;99265.28;4338839;32;171786;-92
2021/12/12 09:47:00;;;;;;;15.05;9.38;;;;;;;2.17;62.62;99278.00;4347709;32;33768;-87
2021/12/12 09:52:52;;;;;;;16.23;9.00;;;;;;;2.15;62.16;99274.50;4348402;32;34130;-89
2021/12/12 09:55:41;;;;;;;16.80;10.90;;;;;;;2.36;61.75;99259.28;4340446;32;33417;-91
2021/12/12 09:58:21;;;;;;;16.58;10.27;;;;;;;1.85;63.12;99261.97;4361275;32;34773;-92
2021/12/12 10:00:57;;;;;;;15.40;9.45;;;;;;;2.09;62.67;99267.41;4333300;32;34252;-93
2021/12/12 10:03:30;;;;;;;129.02;76.25;;;;;;;1.95;62.91;99265.88;4344829;32;34810;-93
2021/12/12 10:06:01;;;;;;;26.12;16.00;;;;;;;2.11;62.35;99275.16;4347207;32;33872;-92
2021/12/12 10:08:54;;;;;;;18.92;11.95;;;;;;;2.10;62.37;99268.28;4360514;32;33634;-95
2021/12/12 10:11:39;;;;;;;15.98;10.35;;;;;;;2.41;61.96;99276.59;4346097;32;33937;-94
2021/12/12 10:14:15;;;;;;;17.92;8.88;;;;;;;2.03;62.96;99282.44;4359839;32;33814;-92
2021/12/12 10:16:49;;;;;;;14.85;9.38;;;;;;;2.24;61.66;99284.31;4358458;32;33174;-89
2021/12/12 10:19:27;;;;;;;15.98;10.68;;;;;;;2.20;62.61;99270.50;4351878;32;33879;-92
2021/12/12 10:22:25;;;;;;;16.75;10.07;;;;;;;2.84;61.21;99276.03;4343804;32;34123;-93
2021/12/12 10:25:04;;;;;;;13.62;8.65;;;;;;;2.38;62.14;99281.56;4344854;32;34194;-88
2021/12/12 10:27:32;;;;;;;16.08;9.68;;;;;;;2.44;61.66;99275.88;4312546;32;32140;-89
2021/12/12 10:30:38;;;;;;;14.80;9.95;;;;;;;2.58;61.61;99273.97;4334984;32;33541;-92
2021/12/12 10:33:18;;;;;;;16.30;10.43;;;;;;;2.48;61.56;99266.66;4324521;32;33888;-90
2021/12/12 10:35:56;;;;;;;13.23;8.32;;;;;;;2.41;62.37;99274.03;4331209;33;34324;-89
2021/12/12 10:38:28;;;;;;;13.40;9.05;;;;;;;2.39;61.91;99272.22;4355692;32;33814;-93
2021/12/12 10:41:03;;;;;;;14.07;8.90;;;;;;;2.34;61.37;99271.13;4335805;32;33696;-92
2021/12/12 10:43:36;;;;;;;14.52;8.73;;;;;;;2.40;61.67;99279.97;4322979;32;34436;-91
2021/12/12 10:46:19;;;;;;;24.40;8.40;;;;;;;2.61;61.13;99274.97;4332093;33;33832;-94
2021/12/12 10:49:00;;;;;;;15.10;9.90;;;;;;;2.34;61.71;99264.31;4319723;32;32835;-94
2021/12/12 10:51:35;;;;;;;14.18;8.35;;;;;;;2.58;61.16;99263.72;4345922;32;33966;-88
2021/12/12 10:54:05;;;;;;;12.57;9.52;;;;;;;2.45;60.89;99262.25;4344746;32;34326;-91
2021/12/12 10:56:40;;;;;;;14.73;9.82;;;;;;;2.67;60.68;99238.53;4323173;32;33460;-93
2021/12/12 10:59:19;;;;;;;15.02;10.73;;;;;;;2.46;61.27;99266.56;4322831;32;32121;-91
2021/12/12 11:01:49;;;;;;;13.50;8.20;;;;;;;2.37;61.28;99269.59;4321515;32;34152;-93
2021/12/12 11:04:21;;;;;;;14.93;8.07;;;;;;;2.30;61.64;99270.09;4322206;32;33285;-92
2021/12/12 11:06:57;;;;;;;17.02;9.30;;;;;;;2.07;62.20;99278.38;4346783;32;33836;-91
2021/12/12 11:09:29;;;;;;;12.23;7.28;;;;;;;2.48;61.06;99261.53;4329417;33;33035;-89
2021/12/12 11:12:10;;;;;;;14.80;7.78;;;;;;;2.61;60.12;99251.94;4345105;32;34710;-94
2021/12/12 11:14:47;;;;;;;11.60;7.72;;;;;;;2.24;61.88;99276.63;4334195;32;34149;-90
2021/12/12 11:17:26;;;;;;;13.90;7.45;;;;;;;2.25;61.91;99276.69;4345721;32;33740;-92
2021/12/12 11:20:01;;;;;;;13.48;7.50;;;;;;;2.39;61.87;99268.00;4334060;32;32270;-91
2021/12/12 11:22:39;;;;;;;11.53;7.57;;;;;;;2.52;61.46;99254.06;4341286;32;32524;-93
2021/12/12 11:25:28;;;;;;;13.50;7.68;;;;;;;2.54;60.98;99264.34;4346757;32;34104;-93
2021/12/12 11:28:30;;;;;;;14.00;7.70;;;;;;;2.44;61.62;99269.06;4342642;32;34087;-92
2021/12/12 11:31:02;;;;;;;13.68;7.43;;;;;;;2.64;61.37;99251.19;4322289;33;33620;-91
2021/12/12 11:33:32;;;;;;;13.02;7.25;;;;;;;2.76;60.51;99245.75;4345375;32;34057;-91
2021/12/12 11:36:00;;;;;;;13.88;8.20;;;;;;;2.56;61.04;99249.97;4332410;33;33248;-93
2021/12/12 11:39:01;;;;;;;14.45;8.50;;;;;;;2.40;61.51;99259.50;4346148;33;34490;-95
2021/12/12 11:41:42;;;;;;;13.15;7.85;;;;;;;2.60;61.44;99251.84;4356139;32;33543;-92
2021/12/12 11:44:28;;;;;;;12.35;7.20;;;;;;;2.55;61.46;99248.22;4360078;32;34635;-91
2021/12/12 11:47:04;;;;;;;11.45;7.97;;;;;;;2.38;61.54;99245.75;4356265;32;34237;-88
2021/12/12 11:49:48;;;;;;;13.68;7.60;;;;;;;2.35;61.70;99225.16;4361079;32;33934;-89
2021/12/12 11:52:31;;;;;;;13.90;7.90;;;;;;;2.51;61.41;99244.66;4358875;32;34120;-89
2021/12/12 11:55:34;;;;;;;15.32;8.18;;;;;;;2.56;61.45;99237.16;4346378;32;34540;-90
2021/12/12 11:58:29;;;;;;;14.87;8.07;;;;;;;2.69;60.81;99236.94;4326679;32;33838;-91
2021/12/12 12:01:31;;;;;;;14.68;7.20;;;;;;;2.62;60.75;99240.00;4331485;32;34342;-88
2021/12/12 12:04:41;;;;;;;12.48;8.40;;;;;;;2.76;60.06;99227.81;4344941;33;34098;-91
2021/12/12 12:07:17;;;;;;;13.45;7.55;;;;;;;2.39;61.44;99257.75;4345402;33;33707;-91
2021/12/12 12:10:00;;;;;;;11.23;6.85;;;;;;;2.31;61.73;99255.63;4355534;32;34153;-92
2021/12/12 12:12:55;;;;;;;12.40;7.18;;;;;;;2.56;60.98;99260.19;4344572;32;33856;-89
2021/12/12 12:15:57;;;;;;;10.75;6.85;;;;;;;2.51;60.91;99257.44;4359777;32;33744;-90
2021/12/12 12:18:59;;;;;;;10.95;7.35;;;;;;;2.70;60.68;99243.78;4346372;32;33931;-90
2021/12/12 12:21:52;;;;;;;12.25;6.87;;;;;;;2.39;62.04;99260.31;4333536;32;32319;-89